Time;durP1;ratioP1;P1;durP2;ratioP2;P2;SDS_P1;SDS_P2;PMS_P1;PMS_P2;Temp;Humidity;BMP_temperature;BMP_pressure;BME280_temperature;BME280_humidity;BME280_pressure;Samples;Min_cycle;Max_cycle;Signal;HPM_P1;HPM_P2
2022/08/08 00:02:14;;;;;;;11.05;5.95;;;14.20;99.90;;;;;;4916020;29;20095;-72
2022/08/08 00:05:04;;;;;;;10.38;5.85;;;14.20;99.90;;;;;;4931286;29;20086;-72
2022/08/08 00:08:07;;;;;;;9.60;5.43;;;14.10;99.90;;;;;;4900378;29;20086;-72
2022/08/08 00:11:00;;;;;;;10.98;5.25;;;14.10;99.90;;;;;;4922125;29;20234;-72
2022/08/08 00:13:30;;;;;;;10.68;5.55;;;14.10;99.90;;;;;;4935188;29;20087;-72
2022/08/08 00:16:06;;;;;;;9.93;5.00;;;14.10;99.90;;;;;;4918523;29;20064;-72
2022/08/08 00:19:05;;;;;;;12.53;5.20;;;14.00;99.90;;;;;;4935419;29;20051;-72
2022/08/08 00:21:45;;;;;;;9.98;5.20;;;14.00;99.90;;;;;;4951381;29;20356;-72
2022/08/08 00:24:21;;;;;;;10.55;5.18;;;14.00;99.90;;;;;;4936477;29;20059;-72
2022/08/08 00:26:56;;;;;;;13.82;4.88;;;13.90;99.90;;;;;;4952514;29;20094;-72
2022/08/08 00:29:47;;;;;;;10.02;5.72;;;13.90;99.90;;;;;;4918570;29;20083;-72
2022/08/08 00:32:36;;;;;;;11.57;4.80;;;13.90;99.90;;;;;;4934968;29;20117;-72
2022/08/08 00:35:33;;;;;;;10.95;5.45;;;13.80;99.90;;;;;;4923973;29;20067;-73
2022/08/08 00:38:17;;;;;;;;;;;13.80;99.90;;;;;;4919418;29;20052;-72
2022/08/08 00:41:14;;;;;;;9.05;4.78;;;13.70;99.90;;;;;;4939149;29;19922;-72
2022/08/08 00:44:07;;;;;;;9.18;4.97;;;13.70;99.90;;;;;;4937810;29;20333;-73
2022/08/08 00:46:55;;;;;;;9.48;5.20;;;13.60;99.90;;;;;;4935129;29;20044;-72
2022/08/08 00:49:39;;;;;;;9.40;5.43;;;13.60;99.90;;;;;;4926296;29;20062;-71
2022/08/08 00:52:34;;;;;;;14.10;5.82;;;13.50;99.90;;;;;;4935661;29;20047;-73
2022/08/08 00:55:21;;;;;;;9.97;5.53;;;13.40;99.90;;;;;;4940410;29;20051;-73
2022/08/08 00:58:09;;;;;;;11.18;5.43;;;13.40;99.90;;;;;;4939268;29;20114;-72
2022/08/08 01:01:16;;;;;;;9.10;4.75;;;13.30;99.90;;;;;;4964308;28;20058;-73
2022/08/08 01:03:51;;;;;;;10.38;4.68;;;13.20;99.90;;;;;;4898239;29;20060;-72
2022/08/08 01:07:07;;;;;;;8.95;5.05;;;13.30;99.90;;;;;;4945628;29;20106;-73
2022/08/08 01:10:05;;;;;;;12.13;5.60;;;13.20;99.90;;;;;;4900147;29;20414;-73
2022/08/08 01:12:46;;;;;;;10.15;5.35;;;13.20;99.90;;;;;;4937310;29;20086;-73
2022/08/08 01:15:29;;;;;;;12.02;5.55;;;13.20;99.90;;;;;;4936123;29;20051;-73
2022/08/08 01:18:10;;;;;;;9.98;5.43;;;13.20;99.90;;;;;;4952604;29;20051;-73
2022/08/08 01:21:03;;;;;;;9.15;5.25;;;13.30;99.90;;;;;;4948311;29;20043;-72
2022/08/08 01:23:40;;;;;;;10.68;5.38;;;13.10;99.90;;;;;;4931965;29;20496;-73
2022/08/08 01:26:30;;;;;;;10.80;6.10;;;13.10;99.90;;;;;;4949090;29;20050;-73
2022/08/08 01:29:24;;;;;;;9.20;6.00;;;13.20;99.90;;;;;;4936528;29;20054;-77
2022/08/08 01:31:55;;;;;;;11.32;6.00;;;12.90;99.90;;;;;;4937048;29;20054;-72
2022/08/08 01:34:58;;;;;;;12.05;5.75;;;12.90;99.90;;;;;;4936563;29;20055;-73
2022/08/08 01:37:46;;;;;;;;;;;12.80;99.90;;;;;;4953579;29;20067;-72
2022/08/08 01:40:33;;;;;;;10.18;5.93;;;12.80;99.90;;;;;;4934019;29;19926;-73
2022/08/08 01:43:37;;;;;;;11.10;5.72;;;12.70;99.90;;;;;;4951980;29;20493;-72
2022/08/08 01:46:43;;;;;;;9.30;6.07;;;12.70;99.90;;;;;;4918508;29;20130;-72
2022/08/08 01:49:50;;;;;;;11.27;6.13;;;12.70;99.90;;;;;;4897708;29;20051;-73
2022/08/08 01:52:36;;;;;;;13.18;6.60;;;12.70;99.90;;;;;;4888943;29;20097;-72
2022/08/08 01:55:27;;;;;;;12.05;6.90;;;12.70;99.90;;;;;;4946036;29;20107;-72
2022/08/08 01:58:03;;;;;;;9.60;6.00;;;12.70;99.90;;;;;;4917840;29;20247;-73
2022/08/08 02:00:31;;;;;;;11.45;5.93;;;12.60;99.90;;;;;;4933258;29;20062;-72
2022/08/08 02:03:18;;;;;;;8.98;4.03;;;12.50;99.90;;;;;;4917611;29;20194;-70
2022/08/08 02:06:01;;;;;;;8.45;4.50;;;12.50;99.90;;;;;;4917904;29;20123;-72
2022/08/08 02:08:52;;;;;;;8.63;5.07;;;12.50;99.90;;;;;;4938524;29;20366;-72
2022/08/08 02:11:24;;;;;;;9.93;5.63;;;12.50;99.90;;;;;;4950462;29;20145;-71
2022/08/08 02:14:04;;;;;;;12.63;6.15;;;12.50;99.90;;;;;;4952574;29;20512;-71
2022/08/08 02:16:56;;;;;;;13.00;6.80;;;12.50;99.90;;;;;;4935959;29;20147;-71
2022/08/08 02:19:42;;;;;;;12.60;6.82;;;12.50;99.90;;;;;;4951454;28;20154;-71
2022/08/08 02:22:31;;;;;;;12.45;7.28;;;12.50;99.90;;;;;;4950448;29;20059;-71
2022/08/08 02:25:12;;;;;;;12.13;7.28;;;12.50;99.90;;;;;;4933693;29;20055;-71
2022/08/08 02:27:58;;;;;;;15.02;7.57;;;12.60;99.90;;;;;;4952167;29;20051;-71
2022/08/08 02:30:46;;;;;;;14.75;8.38;;;12.50;99.90;;;;;;4937018;29;20047;-72
2022/08/08 02:33:24;;;;;;;13.85;8.95;;;12.50;99.90;;;;;;4950966;29;20062;-69
2022/08/08 02:36:05;;;;;;;13.10;7.95;;;12.60;99.90;;;;;;4935172;29;20495;-70
2022/08/08 02:38:48;;;;;;;11.68;6.97;;;12.50;99.90;;;;;;4935921;29;20164;-71
2022/08/08 02:41:31;;;;;;;13.05;6.93;;;12.50;99.90;;;;;;4914499;29;20484;-71
2022/08/08 02:44:24;;;;;;;13.48;7.82;;;12.50;99.90;;;;;;4916617;29;20051;-71
2022/08/08 02:47:21;;;;;;;14.63;7.45;;;12.50;99.90;;;;;;4935655;29;20073;-70
2022/08/08 02:49:55;;;;;;;;;;;12.50;99.90;;;;;;4935525;29;20059;-71
2022/08/08 02:52:36;;;;;;;13.90;7.78;;;12.50;99.90;;;;;;4951499;28;19923;-71
2022/08/08 02:55:28;;;;;;;12.02;6.93;;;12.50;99.90;;;;;;4933959;29;20058;-71
2022/08/08 02:58:44;;;;;;;13.02;7.60;;;12.50;99.90;;;;;;4901487;29;20055;-71
2022/08/08 03:01:22;;;;;;;12.55;8.15;;;12.50;99.90;;;;;;4920206;29;20086;-71
2022/08/08 03:04:09;;;;;;;16.45;8.10;;;12.50;99.90;;;;;;4916392;29;20061;-71
2022/08/08 03:06:50;;;;;;;;;;;12.50;99.90;;;;;;4916685;29;20099;-71
2022/08/08 03:10:03;;;;;;;15.80;7.68;;;12.50;99.90;;;;;;4915962;29;19926;-72
2022/08/08 03:12:55;;;;;;;14.88;8.82;;;12.50;99.90;;;;;;4932077;29;20172;-71
2022/08/08 03:16:01;;;;;;;17.02;8.23;;;12.50;99.90;;;;;;4931184;29;20047;-71
2022/08/08 03:18:33;;;;;;;14.60;8.63;;;12.40;99.90;;;;;;4931969;29;20503;-70
2022/08/08 03:21:00;;;;;;;17.88;9.45;;;12.40;99.90;;;;;;4931542;29;20043;-70
2022/08/08 03:23:26;;;;;;;14.05;9.23;;;12.40;99.90;;;;;;4932584;29;20067;-70
2022/08/08 03:25:57;;;;;;;13.25;8.77;;;12.50;99.90;;;;;;4930246;29;20116;-71
2022/08/08 03:28:39;;;;;;;13.63;7.47;;;12.40;99.90;;;;;;4915892;29;20385;-71
2022/08/08 03:34:03;;;;;;;12.52;6.85;;;12.40;99.90;;;;;;4934370;29;20078;-71
2022/08/08 03:36:30;;;;;;;14.13;7.38;;;12.30;99.90;;;;;;4933184;29;20051;-71
2022/08/08 03:38:56;;;;;;;11.65;7.40;;;12.40;99.90;;;;;;4951257;29;20130;-71
2022/08/08 03:41:31;;;;;;;13.25;7.82;;;12.40;99.90;;;;;;4917357;29;20047;-71
2022/08/08 03:43:58;;;;;;;12.95;7.25;;;12.30;99.90;;;;;;4951302;29;20476;-71
2022/08/08 03:46:24;;;;;;;14.55;7.53;;;12.30;99.90;;;;;;4949645;28;20125;-72
2022/08/08 03:49:01;;;;;;;14.32;8.27;;;12.20;99.90;;;;;;4939043;29;20396;-71
2022/08/08 03:51:34;;;;;;;13.80;7.70;;;12.20;99.90;;;;;;4938874;29;20051;-72
2022/08/08 03:54:00;;;;;;;12.18;6.88;;;12.20;99.90;;;;;;4938968;29;20361;-72
2022/08/08 03:56:26;;;;;;;12.38;7.20;;;12.20;99.90;;;;;;4938784;29;20061;-72
2022/08/08 03:58:52;;;;;;;13.55;8.38;;;12.20;99.90;;;;;;4949923;29;20059;-72
2022/08/08 04:01:19;;;;;;;16.45;9.00;;;12.20;99.90;;;;;;4943028;29;20451;-72
2022/08/08 04:03:46;;;;;;;15.45;8.65;;;12.20;99.90;;;;;;4939288;29;20090;-71
2022/08/08 04:06:15;;;;;;;13.23;8.77;;;12.20;99.90;;;;;;4938329;29;20051;-75
2022/08/08 04:08:41;;;;;;;16.27;9.02;;;12.20;99.90;;;;;;4922618;29;20054;-71
2022/08/08 04:11:08;;;;;;;19.77;9.07;;;12.20;99.90;;;;;;4940705;29;20050;-71
2022/08/08 04:13:34;;;;;;;;;;;12.20;99.90;;;;;;4922695;29;20051;-71
2022/08/08 04:16:00;;;;;;;16.23;8.17;;;12.20;99.90;;;;;;4922270;29;19945;-70
2022/08/08 04:18:26;;;;;;;15.88;9.00;;;12.30;99.90;;;;;;4936885;29;20057;-70
2022/08/08 04:20:53;;;;;;;13.93;8.63;;;12.30;99.90;;;;;;4933032;29;20047;-72
2022/08/08 04:23:19;;;;;;;;;;;12.30;99.90;;;;;;4918723;29;20070;-72
2022/08/08 04:25:44;;;;;;;14.33;8.00;;;12.30;99.90;;;;;;4933109;29;19923;-71
2022/08/08 04:28:11;;;;;;;15.07;8.60;;;12.30;99.90;;;;;;4918358;29;20427;-71
2022/08/08 04:30:37;;;;;;;14.52;7.75;;;12.30;99.90;;;;;;4902575;29;20079;-71
2022/08/08 04:33:03;;;;;;;14.73;8.35;;;12.40;99.90;;;;;;4907818;29;20314;-73
2022/08/08 04:35:29;;;;;;;16.02;8.65;;;12.40;99.90;;;;;;4937961;29;20082;-71
2022/08/08 04:38:12;;;;;;;16.50;7.90;;;12.40;99.90;;;;;;4938793;29;20051;-71
2022/08/08 04:40:38;;;;;;;16.55;8.10;;;12.40;99.90;;;;;;4917091;29;20050;-71
2022/08/08 04:43:04;;;;;;;12.75;7.43;;;12.40;99.90;;;;;;4934359;29;20055;-72
2022/08/08 04:45:32;;;;;;;13.25;7.10;;;12.40;99.90;;;;;;4918772;29;20051;-72
2022/08/08 04:48:04;;;;;;;9.57;5.30;;;12.40;99.90;;;;;;4937406;29;20054;-71
2022/08/08 04:50:30;;;;;;;9.07;5.25;;;12.40;99.90;;;;;;4936505;29;20131;-71
2022/08/08 04:52:58;;;;;;;9.20;5.50;;;12.40;99.90;;;;;;4938167;29;20476;-70
2022/08/08 04:55:23;;;;;;;9.10;4.70;;;12.40;99.90;;;;;;4935494;29;20091;-70
2022/08/08 04:57:49;;;;;;;7.85;4.38;;;12.40;99.90;;;;;;4954278;28;20101;-71
2022/08/08 05:00:15;;;;;;;6.50;4.43;;;12.50;99.90;;;;;;4937203;29;20298;-71
2022/08/08 05:02:42;;;;;;;7.30;4.07;;;12.50;99.90;;;;;;4920508;29;20043;-71
2022/08/08 05:05:08;;;;;;;6.78;3.63;;;12.50;99.90;;;;;;4905839;29;20145;-71
2022/08/08 05:07:58;;;;;;;6.88;3.90;;;12.60;99.90;;;;;;4906548;29;20051;-72
2022/08/08 05:10:28;;;;;;;6.85;4.38;;;12.60;99.90;;;;;;4951333;29;20055;-72
2022/08/08 05:12:57;;;;;;;8.15;3.95;;;12.70;99.90;;;;;;4954876;29;20395;-71
2022/08/08 05:15:23;;;;;;;8.25;4.50;;;12.70;99.90;;;;;;4936927;29;20126;-76
2022/08/08 05:17:49;;;;;;;6.75;4.00;;;12.80;99.90;;;;;;4936486;29;20104;-72
2022/08/08 05:20:16;;;;;;;6.68;3.90;;;12.90;99.90;;;;;;4935654;29;21734;-71
2022/08/08 05:22:42;;;;;;;8.38;4.20;;;13.00;99.90;;;;;;4936757;29;20122;-72
2022/08/08 05:25:08;;;;;;;9.50;4.72;;;13.00;99.90;;;;;;4934733;29;20059;-72
2022/08/08 05:27:34;;;;;;;7.55;4.72;;;13.10;99.90;;;;;;4936680;29;20051;-72
2022/08/08 05:29:59;;;;;;;10.13;5.72;;;13.20;99.90;;;;;;4953362;28;20051;-72
2022/08/08 05:32:27;;;;;;;9.45;6.32;;;13.30;99.90;;;;;;4936294;29;20082;-75
2022/08/08 05:34:56;;;;;;;10.45;6.70;;;13.40;99.90;;;;;;4952211;28;20051;-72
2022/08/08 05:37:24;;;;;;;10.15;5.95;;;13.50;99.90;;;;;;4921995;29;20066;-72
2022/08/08 05:39:53;;;;;;;8.05;4.85;;;13.60;99.90;;;;;;4935133;29;20047;-72
2022/08/08 05:42:36;;;;;;;8.50;5.18;;;13.60;99.90;;;;;;4936819;29;20050;-71
2022/08/08 05:45:03;;;;;;;11.30;5.60;;;13.70;99.90;;;;;;4935869;29;20054;-73
2022/08/08 05:47:30;;;;;;;10.63;5.95;;;13.70;99.90;;;;;;4952223;28;20129;-70
2022/08/08 05:49:57;;;;;;;;;;;13.80;99.90;;;;;;4952213;29;20138;-71
2022/08/08 05:52:23;;;;;;;10.93;6.22;;;13.90;99.90;;;;;;4936972;29;19933;-72
2022/08/08 05:54:56;;;;;;;11.18;6.10;;;14.00;99.90;;;;;;4949439;28;20631;-71
2022/08/08 05:57:26;;;;;;;10.45;6.43;;;14.10;99.90;;;;;;4922035;29;20400;-71
2022/08/08 05:59:56;;;;;;;13.60;7.70;;;14.20;99.90;;;;;;4936223;29;20059;-71
2022/08/08 06:05:12;;;;;;;14.48;7.85;;;14.50;99.90;;;;;;4924375;29;20070;-72
2022/08/08 06:07:40;;;;;;;13.63;6.55;;;14.60;99.90;;;;;;4951525;29;20051;-72
2022/08/08 06:10:12;;;;;;;14.07;6.60;;;14.70;99.90;;;;;;4930387;29;20062;-71
2022/08/08 06:12:40;;;;;;;12.38;6.30;;;14.80;99.90;;;;;;4917495;29;20395;-72
2022/08/08 06:15:08;;;;;;;14.77;7.10;;;14.90;99.90;;;;;;4919028;29;20377;-71
2022/08/08 06:17:40;;;;;;;13.80;6.88;;;15.00;99.90;;;;;;4951468;29;20145;-71
2022/08/08 06:20:11;;;;;;;12.52;6.80;;;15.00;99.90;;;;;;4935402;29;20047;-71
2022/08/08 06:22:37;;;;;;;15.63;8.63;;;15.10;99.90;;;;;;4935258;29;20408;-70
2022/08/08 06:25:06;;;;;;;12.43;7.80;;;15.30;99.90;;;;;;4933447;29;20059;-71
2022/08/08 06:27:38;;;;;;;17.08;7.35;;;15.30;99.90;;;;;;4920327;29;20107;-74
2022/08/08 06:30:14;;;;;;;14.40;6.70;;;15.50;99.90;;;;;;4951843;29;20364;-70
2022/08/08 06:33:02;;;;;;;11.38;6.30;;;15.60;99.90;;;;;;4951080;29;20074;-70
2022/08/08 06:35:32;;;;;;;13.25;6.55;;;15.80;99.90;;;;;;4938982;29;20056;-75
2022/08/08 06:38:03;;;;;;;11.57;5.95;;;15.80;99.90;;;;;;4917533;29;20134;-70
2022/08/08 06:40:32;;;;;;;18.58;6.22;;;15.90;99.90;;;;;;4919984;29;20047;-71
2022/08/08 06:43:06;;;;;;;12.18;4.20;;;16.00;99.90;;;;;;4920653;29;20054;-72
2022/08/08 06:45:39;;;;;;;;;;;16.10;99.90;;;;;;4951341;28;20460;-72
2022/08/08 06:48:11;;;;;;;10.30;3.58;;;16.20;99.90;;;;;;4952481;29;19930;-71
2022/08/08 06:50:38;;;;;;;9.35;2.80;;;16.30;99.90;;;;;;4950791;29;20062;-72
2022/08/08 06:53:04;;;;;;;;;;;16.40;99.90;;;;;;4952760;28;20094;-71
2022/08/08 06:55:30;;;;;;;9.43;2.72;;;16.60;99.90;;;;;;4937532;29;19923;-69
2022/08/08 06:57:56;;;;;;;12.98;2.80;;;16.70;99.90;;;;;;4927040;29;20062;-72
2022/08/08 07:00:22;;;;;;;11.53;3.07;;;16.80;99.90;;;;;;4954266;29;20094;-73
2022/08/08 07:02:56;;;;;;;9.77;2.75;;;16.90;99.90;;;;;;4936940;29;20138;-72
2022/08/08 07:05:24;;;;;;;9.35;2.70;;;17.00;99.90;;;;;;4951328;29;20110;-70
2022/08/08 07:08:16;;;;;;;10.05;2.78;;;17.10;99.90;;;;;;4952074;28;20050;-69
2022/08/08 07:10:50;;;;;;;9.32;2.65;;;17.30;99.90;;;;;;4950468;29;20095;-72
2022/08/08 07:13:18;;;;;;;12.60;2.53;;;17.40;99.90;;;;;;4952178;29;20517;-72
2022/08/08 07:15:51;;;;;;;7.65;2.03;;;17.50;99.90;;;;;;4935538;29;20047;-71
2022/08/08 07:18:37;;;;;;;9.73;2.30;;;17.50;99.90;;;;;;4951453;29;20050;-73
2022/08/08 07:21:06;;;;;;;10.65;2.15;;;17.60;99.90;;;;;;4915553;29;20119;-70
2022/08/08 07:23:47;;;;;;;6.95;2.03;;;17.70;99.90;;;;;;4933511;29;20051;-76
2022/08/08 07:26:17;;;;;;;7.78;1.85;;;17.70;99.90;;;;;;4947636;29;20484;-69
2022/08/08 07:28:43;;;;;;;11.57;2.50;;;17.80;99.90;;;;;;4916549;29;20464;-70
2022/08/08 07:31:09;;;;;;;7.55;2.13;;;17.90;99.90;;;;;;4947717;29;20055;-71
2022/08/08 07:33:37;;;;;;;8.43;2.10;;;18.00;99.90;;;;;;4916322;29;20090;-72
2022/08/08 07:36:07;;;;;;;12.50;2.22;;;18.00;99.90;;;;;;4932153;29;20063;-73
2022/08/08 07:38:34;;;;;;;8.27;1.60;;;18.00;99.90;;;;;;4935023;29;20122;-71
2022/08/08 07:41:02;;;;;;;7.45;1.67;;;18.10;99.90;;;;;;4950355;29;20241;-72
2022/08/08 07:43:32;;;;;;;7.22;2.38;;;18.20;99.90;;;;;;4936019;29;20455;-72
2022/08/08 07:45:58;;;;;;;6.40;1.80;;;18.20;99.90;;;;;;4951917;29;20043;-71
2022/08/08 07:48:32;;;;;;;6.72;1.90;;;18.30;99.90;;;;;;4937094;29;20105;-71
2022/08/08 07:51:01;;;;;;;9.17;1.60;;;18.30;99.90;;;;;;4950908;28;20051;-71
2022/08/08 07:53:27;;;;;;;8.48;1.75;;;18.20;99.90;;;;;;4951685;29;20137;-70
2022/08/08 07:55:56;;;;;;;4.87;1.40;;;18.20;99.90;;;;;;4949172;29;20051;-72
2022/08/08 07:58:38;;;;;;;5.20;1.55;;;18.30;99.90;;;;;;4935288;29;20059;-71
2022/08/08 08:01:12;;;;;;;7.15;1.58;;;18.60;99.90;;;;;;4951220;29;20039;-69
2022/08/08 08:03:45;;;;;;;6.10;1.50;;;18.70;99.90;;;;;;4936286;29;20062;-71
2022/08/08 08:06:12;;;;;;;7.07;1.92;;;18.70;99.90;;;;;;4951195;28;20047;-71
2022/08/08 08:08:55;;;;;;;7.32;2.50;;;18.70;99.90;;;;;;4947261;29;20656;-71
2022/08/08 08:11:22;;;;;;;5.00;1.70;;;18.80;99.90;;;;;;4928745;29;20143;-71
2022/08/08 08:13:57;;;;;;;9.23;2.15;;;18.80;99.90;;;;;;4915718;29;20101;-69
2022/08/08 08:16:27;;;;;;;15.93;1.92;;;18.90;99.90;;;;;;4938259;29;20098;-71
2022/08/08 08:19:01;;;;;;;9.02;2.03;;;18.90;99.90;;;;;;4950381;29;20477;-71
2022/08/08 08:21:31;;;;;;;9.90;1.95;;;18.80;99.90;;;;;;4952335;29;20109;-72
2022/08/08 08:23:57;;;;;;;7.93;1.95;;;18.80;99.90;;;;;;4934294;29;20129;-71
2022/08/08 08:26:24;;;;;;;4.83;1.40;;;18.80;99.90;;;;;;4950105;29;20059;-70
2022/08/08 08:28:49;;;;;;;6.43;1.60;;;19.00;99.90;;;;;;4950754;29;20067;-71
2022/08/08 08:31:15;;;;;;;6.10;1.50;;;19.10;99.90;;;;;;4918581;29;20055;-70
2022/08/08 08:33:41;;;;;;;8.20;2.27;;;19.30;99.90;;;;;;4935972;29;20059;-72
2022/08/08 08:36:09;;;;;;;8.57;1.50;;;19.40;99.90;;;;;;4950645;29;20059;-71
2022/08/08 08:38:39;;;;;;;6.85;1.15;;;19.70;99.90;;;;;;4935455;29;20134;-73
2022/08/08 08:41:07;;;;;;;6.43;1.55;;;19.90;99.90;;;;;;4921799;29;20149;-73
2022/08/08 08:43:40;;;;;;;9.23;1.42;;;19.90;99.90;;;;;;4949662;29;20134;-73
2022/08/08 08:46:08;;;;;;;5.35;1.33;;;20.00;99.90;;;;;;4952416;29;20146;-73
2022/08/08 08:48:35;;;;;;;6.90;1.15;;;;;;;;;;4952158;29;20051;-72
2022/08/08 08:51:04;;;;;;;8.77;1.25;;;20.50;99.90;;;;;;4941369;29;20395;-70
2022/08/08 08:53:36;;;;;;;5.82;1.08;;;19.80;99.90;;;;;;4960206;29;20087;-72
2022/08/08 08:56:02;;;;;;;5.38;1.30;;;19.90;99.90;;;;;;4944042;29;20470;-71
2022/08/08 08:58:40;;;;;;;6.20;1.10;;;20.40;99.90;;;;;;4964059;29;20386;-74
2022/08/08 09:01:13;;;;;;;3.60;1.17;;;20.80;99.90;;;;;;4962114;29;20377;-71
2022/08/08 09:03:46;;;;;;;6.10;1.30;;;21.10;99.90;;;;;;4946317;29;20051;-73
2022/08/08 09:06:21;;;;;;;9.82;1.38;;;20.80;99.90;;;;;;4942902;28;20060;-72
2022/08/08 09:08:58;;;;;;;4.65;1.45;;;20.70;99.90;;;;;;4926670;29;20059;-72
2022/08/08 09:11:24;;;;;;;;;;;20.70;99.90;;;;;;4926953;29;20131;-71
2022/08/08 09:13:51;;;;;;;7.20;1.30;;;20.20;99.90;;;;;;4945004;29;19922;-72
2022/08/08 09:16:17;;;;;;;6.13;1.20;;;20.10;99.90;;;;;;4960992;28;20083;-71
2022/08/08 09:18:45;;;;;;;3.47;0.85;;;20.00;99.90;;;;;;4944514;29;20086;-72
2022/08/08 09:21:14;;;;;;;6.43;1.10;;;20.00;99.90;;;;;;4960885;29;20075;-71
2022/08/08 09:23:46;;;;;;;7.53;1.20;;;19.90;99.90;;;;;;4945365;29;20559;-72
2022/08/08 09:26:17;;;;;;;5.15;1.10;;;19.90;99.90;;;;;;4945055;29;20070;-72
2022/08/08 09:28:43;;;;;;;8.27;1.10;;;20.10;99.90;;;;;;4934841;29;20098;-72
2022/08/08 09:31:19;;;;;;;3.80;1.00;;;20.50;99.90;;;;;;4965632;29;20051;-72
2022/08/08 09:33:47;;;;;;;5.75;1.05;;;20.80;99.90;;;;;;4966245;29;20079;-71
2022/08/08 09:36:21;;;;;;;5.28;1.05;;;21.00;99.90;;;;;;4948846;29;20062;-72
2022/08/08 09:38:56;;;;;;;5.40;1.05;;;21.00;99.90;;;;;;4947586;29;20398;-70
2022/08/08 09:41:37;;;;;;;4.03;1.17;;;21.10;99.90;;;;;;4962868;29;20117;-70
2022/08/08 09:44:18;;;;;;;6.13;1.20;;;21.00;99.90;;;;;;4944123;29;20093;-73
2022/08/08 09:46:47;;;;;;;5.85;1.10;;;21.00;99.90;;;;;;4959184;29;20118;-72
2022/08/08 09:49:23;;;;;;;7.15;1.10;;;21.30;99.90;;;;;;4928956;29;20048;-73
2022/08/08 09:51:56;;;;;;;4.80;0.70;;;21.50;99.90;;;;;;4924845;29;20060;-74
2022/08/08 09:54:33;;;;;;;4.32;0.70;;;21.80;99.90;;;;;;4946302;29;20104;-76
2022/08/08 09:57:04;;;;;;;5.72;1.00;;;21.90;99.90;;;;;;4960428;29;20083;-76
2022/08/08 09:59:31;;;;;;;6.43;0.93;;;22.00;99.90;;;;;;4965642;28;20055;-73
2022/08/08 10:02:02;;;;;;;3.10;0.77;;;22.00;99.90;;;;;;4947424;29;20039;-75
2022/08/08 10:04:33;;;;;;;6.05;0.90;;;21.70;99.90;;;;;;4960470;29;20051;-71
2022/08/08 10:06:59;;;;;;;6.90;1.10;;;21.60;99.90;;;;;;4946265;29;20055;-75
2022/08/08 10:09:32;;;;;;;5.68;1.13;;;21.40;99.90;;;;;;4959129;29;20464;-72
2022/08/08 10:12:06;;;;;;;5.53;1.10;;;21.10;99.90;;;;;;4934929;29;20043;-71
2022/08/08 10:14:36;;;;;;;4.53;1.25;;;20.80;99.90;;;;;;4934841;29;20055;-71
2022/08/08 10:17:04;;;;;;;4.15;0.85;;;20.70;99.90;;;;;;4935288;29;20134;-72
2022/08/08 10:19:40;;;;;;;5.38;0.95;;;20.90;99.90;;;;;;4954308;29;20039;-72
2022/08/08 10:22:08;;;;;;;5.80;1.00;;;20.90;99.90;;;;;;4923356;29;20039;-73
2022/08/08 10:24:35;;;;;;;4.57;1.07;;;21.10;99.90;;;;;;4935701;29;20063;-74
2022/08/08 10:27:07;;;;;;;6.28;1.10;;;21.50;99.90;;;;;;4937848;29;20055;-78
2022/08/08 10:29:44;;;;;;;4.72;0.75;;;22.00;99.90;;;;;;4954085;28;20054;-74
2022/08/08 10:35:17;;;;;;;5.53;0.80;;;22.40;99.90;;;;;;4939796;29;20103;-72
2022/08/08 10:37:54;;;;;;;4.20;0.65;;;22.40;99.90;;;;;;4953122;29;20066;-73
2022/08/08 10:40:21;;;;;;;3.95;0.80;;;22.70;99.90;;;;;;4949103;29;20047;-72
2022/08/08 10:42:52;;;;;;;4.70;0.75;;;22.60;99.90;;;;;;4918014;29;20071;-71
2022/08/08 10:45:18;;;;;;;4.85;0.85;;;22.50;99.80;;;;;;4933415;29;20047;-72
2022/08/08 10:47:55;;;;;;;3.40;0.73;;;23.10;99.30;;;;;;4912301;29;20066;-74
2022/08/08 10:50:23;;;;;;;2.10;0.50;;;23.10;95.30;;;;;;4954478;28;20062;-74
2022/08/08 10:52:49;;;;;;;3.28;0.50;;;23.10;97.00;;;;;;4937832;29;20055;-70
2022/08/08 10:55:18;;;;;;;4.35;0.70;;;23.00;97.30;;;;;;4934682;29;20102;-72
2022/08/08 10:57:48;;;;;;;4.40;0.68;;;22.80;97.00;;;;;;4952290;29;20499;-72
2022/08/08 11:00:20;;;;;;;6.18;0.75;;;22.50;97.80;;;;;;4932006;29;20062;-73
2022/08/08 11:02:46;;;;;;;3.83;0.70;;;22.30;97.40;;;;;;4946386;29;20094;-73
2022/08/08 11:05:12;;;;;;;7.47;0.90;;;22.50;97.60;;;;;;4952137;28;20078;-73
2022/08/08 11:07:54;;;;;;;3.90;1.08;;;22.00;97.40;;;;;;4920735;29;20118;-71
2022/08/08 11:10:23;;;;;;;3.72;0.82;;;22.20;96.80;;;;;;4953608;29;20110;-71
2022/08/08 11:13:00;;;;;;;3.75;0.70;;;22.00;96.40;;;;;;4939320;29;20051;-72
2022/08/08 11:15:28;;;;;;;3.50;0.70;;;22.10;96.30;;;;;;4953057;29;20070;-70
2022/08/08 11:17:54;;;;;;;3.72;0.90;;;21.80;96.80;;;;;;4952431;28;20130;-72
2022/08/08 11:20:26;;;;;;;3.15;0.70;;;21.80;97.30;;;;;;4953269;29;20125;-71
2022/08/08 11:22:55;;;;;;;5.40;0.70;;;21.80;96.90;;;;;;4936885;29;20123;-73
2022/08/08 11:25:29;;;;;;;6.70;0.60;;;22.00;97.30;;;;;;4951390;29;20388;-72
2022/08/08 11:27:57;;;;;;;6.35;0.88;;;22.30;97.80;;;;;;4957644;29;20137;-74
2022/08/08 11:30:26;;;;;;;4.13;0.70;;;22.80;97.70;;;;;;4948900;29;20111;-73
2022/08/08 11:32:54;;;;;;;3.08;0.68;;;22.70;94.40;;;;;;4956524;29;20055;-73
2022/08/08 11:35:22;;;;;;;2.47;0.60;;;23.20;94.40;;;;;;4955714;28;20047;-70
2022/08/08 11:37:48;;;;;;;2.47;0.50;;;23.50;94.00;;;;;;4956354;29;20058;-71
2022/08/08 11:40:14;;;;;;;4.80;0.60;;;23.30;93.20;;;;;;4948188;29;20126;-72
2022/08/08 11:42:50;;;;;;;4.25;0.70;;;23.10;92.70;;;;;;4962261;29;20047;-70
2022/08/08 11:45:19;;;;;;;2.50;0.60;;;23.10;92.60;;;;;;4947189;29;20051;-71
2022/08/08 11:47:46;;;;;;;4.18;0.80;;;23.10;92.70;;;;;;4959501;28;20066;-73
2022/08/08 11:50:13;;;;;;;4.10;0.70;;;23.20;92.00;;;;;;4928060;29;20074;-72
2022/08/08 11:52:40;;;;;;;2.83;0.52;;;23.20;92.00;;;;;;4943978;29;20059;-71
2022/08/08 11:55:26;;;;;;;;;;;22.90;91.40;;;;;;4944280;29;20051;-71
2022/08/08 11:58:01;;;;;;;2.58;0.60;;;22.80;91.70;;;;;;4928262;29;19929;-72
2022/08/08 12:00:33;;;;;;;5.22;0.63;;;23.00;92.50;;;;;;4943349;29;20388;-72
2022/08/08 12:02:59;;;;;;;4.68;0.50;;;23.00;91.30;;;;;;4960101;29;20048;-71
2022/08/08 12:05:37;;;;;;;3.67;0.68;;;23.00;92.40;;;;;;4960612;29;20076;-72
2022/08/08 12:08:04;;;;;;;4.75;0.70;;;22.50;91.70;;;;;;4945234;29;20463;-72
2022/08/08 12:10:45;;;;;;;4.07;0.82;;;22.40;92.50;;;;;;4962729;29;20058;-71
2022/08/08 12:13:14;;;;;;;4.28;0.70;;;22.60;92.60;;;;;;4965305;29;20119;-73
2022/08/08 12:15:49;;;;;;;3.05;0.77;;;22.60;93.00;;;;;;4963920;29;20055;-71
2022/08/08 12:18:25;;;;;;;2.97;0.75;;;22.70;93.00;;;;;;4962314;29;20130;-72
2022/08/08 12:20:54;;;;;;;3.00;0.50;;;22.80;92.70;;;;;;4957879;29;20412;-70
2022/08/08 12:23:32;;;;;;;2.10;0.60;;;22.80;93.00;;;;;;4943285;29;20138;-73
2022/08/08 12:26:13;;;;;;;4.10;0.77;;;22.90;93.20;;;;;;4974100;28;20074;-72
2022/08/08 12:28:38;;;;;;;2.05;0.50;;;22.90;92.50;;;;;;4974893;28;20074;-73
2022/08/08 12:31:09;;;;;;;3.83;0.70;;;22.70;92.40;;;;;;4959417;29;20043;-72
2022/08/08 12:33:39;;;;;;;4.05;0.50;;;22.90;93.00;;;;;;4962735;28;20096;-71
2022/08/08 12:36:12;;;;;;;3.47;0.70;;;22.90;92.80;;;;;;4965652;29;20051;-71
2022/08/08 12:38:49;;;;;;;3.05;0.70;;;23.00;92.90;;;;;;4967771;28;20475;-71
2022/08/08 12:41:14;;;;;;;2.25;0.73;;;23.20;92.20;;;;;;4966124;29;20071;-71
2022/08/08 12:43:41;;;;;;;3.03;0.80;;;23.20;92.00;;;;;;4951342;29;20051;-72
2022/08/08 12:46:21;;;;;;;5.05;0.60;;;22.90;92.30;;;;;;4967297;29;20078;-71
2022/08/08 12:49:00;;;;;;;6.25;0.82;;;23.00;92.70;;;;;;4962928;29;20098;-72
2022/08/08 12:51:26;;;;;;;2.78;0.60;;;23.30;92.40;;;;;;4962199;29;20077;-73
2022/08/08 12:54:21;;;;;;;2.95;0.70;;;23.40;92.50;;;;;;4965561;29;20079;-73
2022/08/08 12:56:47;;;;;;;2.97;0.63;;;23.30;91.90;;;;;;4937220;29;20044;-73
2022/08/08 12:59:25;;;;;;;3.40;0.60;;;23.30;91.60;;;;;;4961836;29;20043;-72
2022/08/08 13:01:56;;;;;;;4.47;0.55;;;23.70;91.40;;;;;;4966664;29;20362;-72
2022/08/08 13:04:33;;;;;;;2.75;0.43;;;23.90;90.30;;;;;;4964958;28;20126;-72
2022/08/08 13:07:05;;;;;;;3.47;0.50;;;24.00;90.20;;;;;;4964577;29;20066;-72
2022/08/08 13:09:40;;;;;;;1.65;0.30;;;24.20;90.50;;;;;;4947205;29;20051;-72
2022/08/08 13:12:28;;;;;;;4.47;0.47;;;24.30;89.60;;;;;;4964896;29;20051;-70
2022/08/08 13:14:55;;;;;;;2.95;0.65;;;24.40;90.20;;;;;;4943999;29;20404;-71
2022/08/08 13:17:25;;;;;;;4.90;0.98;;;24.20;90.40;;;;;;4938258;29;20060;-74
2022/08/08 13:19:53;;;;;;;4.80;0.70;;;24.00;90.80;;;;;;4940201;29;20078;-74
2022/08/08 13:22:21;;;;;;;2.65;0.60;;;23.80;91.40;;;;;;4955951;28;20048;-74
2022/08/08 13:24:47;;;;;;;2.63;0.65;;;23.80;91.40;;;;;;4956686;28;20134;-71
2022/08/08 13:27:17;;;;;;;6.78;0.77;;;23.80;91.20;;;;;;4944582;29;20143;-73
2022/08/08 13:29:56;;;;;;;4.05;0.63;;;23.80;91.60;;;;;;4947365;29;20061;-72
2022/08/08 13:32:23;;;;;;;2.42;0.70;;;23.90;91.60;;;;;;4961252;29;20062;-75